Time;durP1;ratioP1;P1;durP2;ratioP2;P2;SDS_P1;SDS_P2;PMS_P1;PMS_P2;Temp;Humidity;BMP_temperature;BMP_pressure;BME280_temperature;BME280_humidity;BME280_pressure;Samples;Min_cycle;Max_cycle;Signal;HPM_P1;HPM_P2
2022/08/20 00:00:26;;;;;;;9.50;8.50;;;17.80;99.90;;;;;;4915157;29;20048;-79
2022/08/20 00:02:55;;;;;;;9.25;7.63;;;17.80;99.90;;;;;;4905770;29;20102;-79
2022/08/20 00:05:25;;;;;;;8.68;7.82;;;17.80;99.90;;;;;;4920756;29;20575;-79
2022/08/20 00:07:51;;;;;;;8.32;7.43;;;17.80;99.90;;;;;;4900969;29;20039;-79
2022/08/20 00:10:18;;;;;;;9.00;8.07;;;17.80;99.90;;;;;;4904195;29;20472;-79
2022/08/20 00:12:46;;;;;;;8.40;7.60;;;17.80;99.90;;;;;;4932830;29;20104;-79
2022/08/20 00:15:13;;;;;;;8.77;7.53;;;17.80;99.90;;;;;;4904503;29;20032;-79
2022/08/20 00:17:39;;;;;;;9.30;7.80;;;17.80;99.90;;;;;;4915293;29;20127;-81
2022/08/20 00:20:08;;;;;;;9.85;7.28;;;17.80;99.90;;;;;;4921126;29;20561;-80
2022/08/20 00:22:35;;;;;;;9.43;7.90;;;17.80;99.90;;;;;;4899355;29;20453;-79
2022/08/20 00:25:02;;;;;;;8.85;7.60;;;17.80;99.90;;;;;;4925757;29;20437;-79
2022/08/20 00:27:27;;;;;;;8.48;7.57;;;17.80;99.90;;;;;;4917856;29;20047;-79
2022/08/20 00:29:53;;;;;;;8.48;7.57;;;17.70;99.90;;;;;;4915610;29;20051;-80
2022/08/20 00:32:19;;;;;;;7.57;6.85;;;17.70;99.90;;;;;;4920855;29;20477;-79
2022/08/20 00:34:44;;;;;;;10.75;7.38;;;17.70;99.90;;;;;;4922737;29;20227;-79
2022/08/20 00:37:10;;;;;;;8.07;6.93;;;17.70;99.90;;;;;;4914503;29;20036;-80
2022/08/20 00:39:35;;;;;;;9.70;7.32;;;17.60;99.90;;;;;;4914613;29;20076;-80
2022/08/20 00:42:02;;;;;;;7.93;7.13;;;17.70;99.90;;;;;;4914703;29;20040;-82
2022/08/20 00:44:28;;;;;;;7.10;6.40;;;17.70;99.90;;;;;;4897286;29;20089;-80
2022/08/20 00:46:54;;;;;;;8.75;7.75;;;17.70;99.90;;;;;;4920270;29;20052;-83
2022/08/20 00:49:31;;;;;;;9.55;7.20;;;17.70;99.90;;;;;;4928296;29;20036;-80
2022/08/20 00:51:59;;;;;;;8.15;7.25;;;17.60;99.90;;;;;;4898723;29;20131;-79
2022/08/20 00:54:35;;;;;;;9.65;7.38;;;17.70;99.90;;;;;;4914439;29;20051;-79
2022/08/20 00:57:07;;;;;;;7.45;6.57;;;17.60;99.90;;;;;;4898541;29;20037;-79
2022/08/20 00:59:36;;;;;;;7.85;7.05;;;17.70;99.90;;;;;;4921937;29;20043;-79
2022/08/20 01:02:06;;;;;;;8.10;7.30;;;17.70;99.90;;;;;;4905558;29;20040;-79
2022/08/20 01:04:33;;;;;;;7.38;6.68;;;17.70;99.90;;;;;;4898886;29;20124;-79
2022/08/20 01:07:00;;;;;;;7.25;6.50;;;17.70;99.90;;;;;;4916630;29;20502;-79
2022/08/20 01:09:27;;;;;;;7.10;6.40;;;17.60;99.90;;;;;;4921575;29;20040;-80
2022/08/20 01:11:53;;;;;;;7.38;6.75;;;17.70;99.90;;;;;;4900647;29;20031;-80
2022/08/20 01:14:43;;;;;;;8.50;6.72;;;17.50;99.90;;;;;;4919457;29;20037;-79
2022/08/20 01:17:16;;;;;;;7.50;6.35;;;17.70;99.90;;;;;;4903009;29;20122;-79
2022/08/20 01:19:46;;;;;;;6.95;6.30;;;17.70;99.90;;;;;;4915687;29;20054;-79
2022/08/20 01:25:08;;;;;;;6.90;6.20;;;17.60;99.90;;;;;;4922259;29;20048;-79
2022/08/20 01:27:35;;;;;;;7.80;6.25;;;17.60;99.90;;;;;;4906424;29;20047;-79
2022/08/20 01:30:01;;;;;;;7.68;6.82;;;17.70;99.90;;;;;;4932925;29;20050;-81
2022/08/20 01:32:27;;;;;;;7.53;6.05;;;17.60;99.90;;;;;;4917259;29;20040;-79
2022/08/20 01:34:53;;;;;;;7.22;6.55;;;17.50;99.90;;;;;;4910505;29;20041;-80
2022/08/20 01:37:18;;;;;;;8.05;6.38;;;17.60;99.90;;;;;;4912900;29;20465;-79
2022/08/20 01:39:44;;;;;;;7.00;5.93;;;17.60;99.90;;;;;;4920613;29;20078;-79
2022/08/20 01:42:21;;;;;;;7.18;6.18;;;17.60;99.90;;;;;;4911474;29;20098;-79
2022/08/20 01:44:48;;;;;;;6.53;5.47;;;17.50;99.90;;;;;;4917326;29;20412;-81
2022/08/20 01:47:19;;;;;;;7.18;5.93;;;17.60;99.90;;;;;;4922486;29;20054;-79
2022/08/20 01:49:52;;;;;;;7.57;5.78;;;17.60;99.90;;;;;;4905037;29;20390;-79
2022/08/20 01:52:44;;;;;;;6.70;6.10;;;17.50;99.90;;;;;;4919349;29;20488;-79
2022/08/20 01:55:10;;;;;;;7.70;6.40;;;17.50;99.90;;;;;;4906004;29;20488;-79
2022/08/20 01:57:37;;;;;;;8.00;5.63;;;17.50;99.90;;;;;;4914326;29;20043;-79
2022/08/20 02:00:12;;;;;;;5.88;5.32;;;17.50;99.90;;;;;;4917348;29;20120;-79
2022/08/20 02:02:39;;;;;;;6.22;5.57;;;17.50;99.90;;;;;;4932865;29;20070;-79
2022/08/20 02:05:05;;;;;;;5.80;5.30;;;17.50;99.90;;;;;;4902581;29;20043;-79
2022/08/20 02:07:31;;;;;;;5.75;5.25;;;17.50;99.90;;;;;;4919298;29;20497;-79
2022/08/20 02:09:58;;;;;;;5.68;5.07;;;17.40;99.90;;;;;;4906733;29;20095;-79
2022/08/20 02:12:24;;;;;;;5.95;5.45;;;17.40;99.90;;;;;;4928363;29;20047;-79
2022/08/20 02:14:52;;;;;;;6.10;5.50;;;17.40;99.90;;;;;;4908026;29;20036;-80
2022/08/20 02:17:21;;;;;;;6.25;5.65;;;17.40;99.90;;;;;;4916906;29;20047;-80
2022/08/20 02:19:54;;;;;;;6.15;5.55;;;17.30;99.90;;;;;;4898890;29;20043;-79
2022/08/20 02:22:25;;;;;;;5.55;5.05;;;17.30;99.90;;;;;;4928074;29;20544;-79
2022/08/20 02:24:51;;;;;;;5.95;5.35;;;17.30;99.90;;;;;;4921634;29;20127;-79
2022/08/20 02:27:17;;;;;;;6.15;5.55;;;17.20;99.90;;;;;;4927197;29;20074;-79
2022/08/20 02:29:43;;;;;;;5.78;5.28;;;17.30;99.90;;;;;;4922363;29;20084;-80
2022/08/20 02:32:10;;;;;;;6.57;5.75;;;17.20;99.90;;;;;;4932684;29;20040;-79
2022/08/20 02:34:35;;;;;;;5.60;5.10;;;17.20;99.90;;;;;;4903424;29;20512;-79
2022/08/20 02:37:03;;;;;;;5.47;4.97;;;17.20;99.90;;;;;;4928450;29;20066;-79
2022/08/20 02:39:29;;;;;;;7.90;6.20;;;17.20;99.90;;;;;;4909086;29;20133;-83
2022/08/20 02:41:55;;;;;;;6.65;6.05;;;17.10;99.90;;;;;;4909139;29;20032;-79
2022/08/20 02:44:20;;;;;;;6.88;6.18;;;17.10;99.90;;;;;;4916535;29;20072;-81
2022/08/20 02:46:48;;;;;;;7.80;6.50;;;17.10;99.90;;;;;;4915498;29;20123;-80
2022/08/20 02:49:18;;;;;;;6.47;5.88;;;17.10;99.90;;;;;;4923104;29;20043;-79
2022/08/20 02:51:44;;;;;;;6.63;5.80;;;17.10;99.90;;;;;;4910148;29;20543;-79
2022/08/20 02:54:11;;;;;;;6.25;5.65;;;17.10;99.90;;;;;;4929924;29;20164;-79
2022/08/20 02:56:37;;;;;;;6.93;6.22;;;17.00;99.90;;;;;;4900678;29;20040;-79
2022/08/20 02:59:02;;;;;;;6.65;6.05;;;17.00;99.90;;;;;;4907122;29;20051;-79
2022/08/20 03:01:29;;;;;;;6.32;5.82;;;17.00;99.90;;;;;;4923080;29;20369;-79
2022/08/20 03:03:57;;;;;;;6.70;6.10;;;17.00;99.90;;;;;;4927723;29;20064;-81
2022/08/20 03:06:24;;;;;;;7.22;6.15;;;17.00;99.90;;;;;;4919472;29;20095;-81
2022/08/20 03:08:49;;;;;;;6.13;5.53;;;17.00;99.90;;;;;;4931121;29;20134;-79
2022/08/20 03:11:16;;;;;;;7.38;6.78;;;17.00;99.90;;;;;;4911914;29;20118;-79
2022/08/20 03:13:42;;;;;;;7.65;6.85;;;16.90;99.90;;;;;;4926992;29;20075;-80
2022/08/20 03:16:08;;;;;;;8.10;7.30;;;17.00;99.90;;;;;;4913166;29;20436;-80
2022/08/20 03:18:37;;;;;;;8.57;7.38;;;16.90;99.90;;;;;;4902497;29;20044;-79
2022/08/20 03:21:05;;;;;;;9.27;8.27;;;16.90;99.90;;;;;;4915129;29;20040;-79
2022/08/20 03:23:31;;;;;;;8.00;7.28;;;16.90;99.90;;;;;;4915813;29;20044;-79
2022/08/20 03:25:57;;;;;;;8.88;8.07;;;16.80;99.90;;;;;;4896970;29;20470;-79
2022/08/20 03:28:23;;;;;;;9.70;8.75;;;16.80;99.90;;;;;;4906415;29;20044;-79
2022/08/20 03:30:50;;;;;;;9.27;8.10;;;16.90;99.90;;;;;;4923501;29;20411;-79
2022/08/20 03:33:16;;;;;;;8.73;7.75;;;16.90;99.90;;;;;;4915694;29;20040;-79
2022/08/20 03:35:41;;;;;;;8.90;8.10;;;16.90;99.90;;;;;;4899139;29;20378;-79
2022/08/20 03:38:10;;;;;;;9.15;8.25;;;16.90;99.90;;;;;;4915350;29;20044;-79
2022/08/20 03:40:36;;;;;;;13.45;8.65;;;16.90;99.90;;;;;;4899338;29;20449;-79
2022/08/20 03:43:05;;;;;;;9.60;7.57;;;16.90;99.90;;;;;;4923270;29;20036;-80
2022/08/20 03:45:31;;;;;;;10.75;8.45;;;17.00;99.90;;;;;;4915332;29;20055;-79
2022/08/20 03:47:57;;;;;;;10.65;8.20;;;17.00;99.90;;;;;;4913850;29;20412;-79
2022/08/20 03:50:27;;;;;;;8.73;7.60;;;17.00;99.90;;;;;;4899436;29;20047;-79
2022/08/20 03:52:54;;;;;;;9.38;7.13;;;17.00;99.90;;;;;;4899466;29;20040;-79
2022/08/20 03:55:21;;;;;;;8.30;7.18;;;17.00;99.90;;;;;;4904293;29;20031;-79
2022/08/20 03:57:51;;;;;;;7.82;6.95;;;17.00;99.90;;;;;;4922995;29;20519;-79
2022/08/20 04:00:24;;;;;;;8.68;7.18;;;16.90;99.90;;;;;;4909435;29;20509;-79
2022/08/20 04:02:49;;;;;;;8.68;7.65;;;17.00;99.90;;;;;;4915005;29;20516;-79
2022/08/20 04:05:15;;;;;;;8.32;7.32;;;16.90;99.90;;;;;;4905089;29;20042;-80
2022/08/20 04:07:41;;;;;;;7.40;6.60;;;16.80;99.90;;;;;;4925225;29;20047;-80
2022/08/20 04:10:08;;;;;;;7.68;6.82;;;16.80;99.90;;;;;;4914269;29;20386;-80
2022/08/20 04:12:39;;;;;;;8.15;6.75;;;16.70;99.90;;;;;;4914705;29;20056;-80
2022/08/20 04:15:07;;;;;;;7.45;6.75;;;16.70;99.90;;;;;;4915315;29;20493;-80
2022/08/20 04:17:32;;;;;;;7.13;6.43;;;16.60;99.90;;;;;;4914779;29;20040;-80
2022/08/20 04:20:00;;;;;;;7.47;6.78;;;16.50;99.90;;;;;;4925252;29;20041;-80
2022/08/20 04:22:26;;;;;;;7.22;6.43;;;16.50;99.90;;;;;;4925322;29;20072;-80
2022/08/20 04:24:52;;;;;;;8.32;7.55;;;16.50;99.90;;;;;;4922676;29;20539;-80
2022/08/20 04:27:18;;;;;;;6.60;5.90;;;16.40;99.90;;;;;;4914784;29;20134;-80
2022/08/20 04:29:43;;;;;;;7.60;6.60;;;16.40;99.90;;;;;;4915181;29;20044;-80
2022/08/20 04:32:09;;;;;;;7.70;6.93;;;16.30;99.90;;;;;;4914313;29;20123;-80
2022/08/20 04:34:35;;;;;;;9.30;6.80;;;16.30;99.90;;;;;;4929198;29;20048;-80
2022/08/20 04:37:01;;;;;;;7.75;7.03;;;16.20;99.90;;;;;;4925120;29;20035;-80
2022/08/20 04:39:27;;;;;;;7.13;6.10;;;16.30;99.90;;;;;;4910586;29;20098;-80
2022/08/20 04:41:52;;;;;;;7.60;6.65;;;16.20;99.90;;;;;;4915316;29;20044;-80
2022/08/20 04:44:19;;;;;;;6.30;5.70;;;16.20;99.90;;;;;;4914957;29;20050;-80
2022/08/20 04:46:44;;;;;;;5.88;4.85;;;16.10;99.90;;;;;;4912729;29;20040;-80
2022/08/20 04:49:11;;;;;;;6.68;5.90;;;16.00;99.90;;;;;;4903972;29;20617;-80
2022/08/20 04:51:36;;;;;;;8.57;6.32;;;16.00;99.90;;;;;;4917833;29;20044;-80
2022/08/20 04:54:03;;;;;;;6.75;5.85;;;16.00;99.90;;;;;;4933715;29;20031;-80
2022/08/20 04:56:31;;;;;;;7.50;6.80;;;16.00;99.90;;;;;;4917791;29;20036;-80
2022/08/20 04:59:00;;;;;;;7.20;6.60;;;16.00;99.90;;;;;;4932627;29;20050;-80
2022/08/20 05:01:26;;;;;;;6.70;6.00;;;16.00;99.90;;;;;;4917991;29;20111;-80
2022/08/20 05:03:55;;;;;;;8.27;6.68;;;16.00;99.90;;;;;;4905182;29;20051;-80
2022/08/20 05:06:23;;;;;;;9.13;6.13;;;16.10;99.90;;;;;;4920826;29;20035;-80
2022/08/20 05:08:49;;;;;;;7.75;6.97;;;16.00;99.90;;;;;;4899050;29;20040;-80
2022/08/20 05:11:15;;;;;;;8.15;7.13;;;16.10;99.90;;;;;;4914464;29;20486;-80
2022/08/20 05:13:41;;;;;;;7.50;5.97;;;16.10;99.90;;;;;;4897929;29;20047;-80
2022/08/20 05:16:08;;;;;;;7.25;6.55;;;16.10;99.90;;;;;;4897251;29;20044;-80
2022/08/20 05:18:34;;;;;;;7.63;6.93;;;16.10;99.90;;;;;;4901297;29;20044;-80
2022/08/20 05:21:04;;;;;;;7.25;6.55;;;16.20;99.90;;;;;;4920156;29;20036;-80
2022/08/20 05:23:32;;;;;;;7.30;6.60;;;16.20;99.90;;;;;;4898719;29;20057;-81
2022/08/20 05:25:58;;;;;;;8.10;7.13;;;16.10;99.90;;;;;;4898644;29;20044;-81
2022/08/20 05:28:29;;;;;;;7.63;6.82;;;16.20;99.90;;;;;;4913394;29;20040;-80
2022/08/20 05:30:54;;;;;;;7.95;6.72;;;16.20;99.90;;;;;;4922383;29;20040;-80
2022/08/20 05:33:21;;;;;;;7.78;6.72;;;16.30;99.90;;;;;;4918399;29;20035;-81
2022/08/20 05:35:49;;;;;;;6.95;6.25;;;16.30;99.90;;;;;;4925034;29;20040;-80
2022/08/20 05:38:17;;;;;;;7.07;6.15;;;16.40;99.90;;;;;;4918777;29;20115;-80
2022/08/20 05:40:44;;;;;;;6.60;6.00;;;16.40;99.90;;;;;;4925944;29;20382;-80
2022/08/20 05:43:10;;;;;;;7.13;6.43;;;16.40;99.90;;;;;;4922452;29;20511;-81
2022/08/20 05:45:37;;;;;;;8.80;6.35;;;16.30;99.90;;;;;;4916006;29;20048;-81
2022/08/20 05:48:14;;;;;;;8.27;6.82;;;16.40;99.90;;;;;;4915519;29;20062;-81
2022/08/20 05:50:41;;;;;;;7.72;6.93;;;16.50;99.90;;;;;;4911055;29;20044;-80
2022/08/20 05:53:08;;;;;;;9.20;7.97;;;16.60;99.90;;;;;;4920889;29;20512;-80
2022/08/20 05:55:37;;;;;;;7.55;6.68;;;16.70;99.90;;;;;;4921067;29;20127;-81
2022/08/20 05:58:06;;;;;;;7.05;6.32;;;16.80;99.90;;;;;;4911681;29;20039;-80
2022/08/20 06:00:33;;;;;;;8.35;6.40;;;16.80;99.90;;;;;;4921355;29;20131;-81
2022/08/20 06:05:44;;;;;;;5.90;5.25;;;16.90;99.90;;;;;;4916287;29;20485;-81
2022/08/20 06:08:11;;;;;;;6.10;5.50;;;16.90;99.90;;;;;;4925360;29;20058;-80
2022/08/20 06:10:39;;;;;;;7.47;5.65;;;16.90;99.90;;;;;;4917192;29;20479;-80
2022/08/20 06:13:05;;;;;;;5.57;4.93;;;16.90;99.90;;;;;;4923306;29;20064;-80
2022/08/20 06:15:32;;;;;;;5.97;5.22;;;16.90;99.90;;;;;;4931204;29;20567;-84
2022/08/20 06:17:58;;;;;;;5.88;5.28;;;16.90;99.90;;;;;;4901134;29;20046;-84
2022/08/20 06:20:24;;;;;;;6.65;5.13;;;16.90;99.90;;;;;;4917012;29;20476;-79
2022/08/20 06:22:50;;;;;;;6.03;4.40;;;17.00;99.90;;;;;;4925312;29;20103;-81
2022/08/20 06:25:15;;;;;;;5.00;4.47;;;17.00;99.90;;;;;;4900094;29;20497;-81
2022/08/20 06:27:42;;;;;;;6.28;4.00;;;17.00;99.90;;;;;;4920299;29;20040;-82
2022/08/20 06:30:10;;;;;;;4.05;3.67;;;17.10;99.90;;;;;;4890937;29;20049;-81
2022/08/20 06:32:36;;;;;;;4.38;3.90;;;17.00;99.90;;;;;;4882350;29;20041;-82
2022/08/20 06:35:04;;;;;;;4.65;3.72;;;17.10;99.90;;;;;;4882361;29;20092;-81
2022/08/20 06:37:31;;;;;;;4.65;3.97;;;17.10;99.90;;;;;;4895613;29;20066;-82
2022/08/20 06:40:01;;;;;;;4.05;3.28;;;17.20;99.90;;;;;;4917314;29;20130;-82
2022/08/20 06:42:27;;;;;;;3.40;3.10;;;17.20;99.90;;;;;;4916749;29;20044;-81
2022/08/20 06:44:53;;;;;;;4.40;3.40;;;17.10;99.90;;;;;;4900774;29;20055;-81
2022/08/20 06:47:20;;;;;;;3.75;2.90;;;17.10;99.90;;;;;;4900741;29;20483;-81
2022/08/20 06:49:46;;;;;;;5.13;2.83;;;17.00;99.90;;;;;;4900446;29;20568;-81
2022/08/20 06:52:15;;;;;;;4.40;3.00;;;16.80;99.90;;;;;;4916551;29;20130;-81
2022/08/20 06:54:41;;;;;;;3.50;2.90;;;16.90;99.90;;;;;;4907385;29;20402;-81
2022/08/20 06:57:07;;;;;;;2.90;2.67;;;16.90;99.90;;;;;;4903687;29;20040;-81
2022/08/20 06:59:33;;;;;;;5.32;2.78;;;16.80;99.90;;;;;;4904968;29;20036;-81
2022/08/20 07:01:58;;;;;;;4.05;2.60;;;16.80;99.90;;;;;;4916358;29;20127;-82
2022/08/20 07:04:25;;;;;;;3.50;2.80;;;16.80;99.90;;;;;;4900563;29;20543;-81
2022/08/20 07:06:52;;;;;;;3.85;2.75;;;16.80;99.90;;;;;;4899597;29;20040;-81
2022/08/20 07:09:19;;;;;;;3.58;2.70;;;16.80;99.90;;;;;;4914003;29;20044;-81
2022/08/20 07:11:45;;;;;;;3.22;2.83;;;16.80;99.90;;;;;;4906933;29;20044;-81
2022/08/20 07:14:11;;;;;;;3.22;2.42;;;16.80;99.90;;;;;;4915932;29;20499;-81
2022/08/20 07:16:37;;;;;;;3.22;2.58;;;16.90;99.90;;;;;;4900500;29;20040;-81
2022/08/20 07:19:03;;;;;;;3.08;2.50;;;16.90;99.90;;;;;;4916613;29;20032;-85
2022/08/20 07:21:29;;;;;;;3.28;1.80;;;16.80;99.90;;;;;;4901140;29;20047;-84
2022/08/20 07:23:55;;;;;;;3.08;1.90;;;16.80;99.90;;;;;;4911630;29;20481;-83
2022/08/20 07:26:21;;;;;;;2.67;1.83;;;16.80;99.90;;;;;;4915363;29;20126;-83
2022/08/20 07:28:46;;;;;;;2.63;1.60;;;16.90;99.90;;;;;;4896519;29;20051;-83
2022/08/20 07:33:56;;;;;;;2.53;2.08;;;17.00;99.90;;;;;;4915815;29;20188;-84
2022/08/20 07:36:22;;;;;;;2.53;1.85;;;17.10;99.90;;;;;;4899442;29;20099;-83
2022/08/20 07:38:51;;;;;;;2.88;1.48;;;17.10;99.90;;;;;;4915527;29;20040;-83
2022/08/20 07:41:17;;;;;;;2.55;1.10;;;17.10;99.90;;;;;;4915585;29;20044;-83
2022/08/20 07:43:46;;;;;;;3.10;1.35;;;17.10;99.90;;;;;;4900042;29;20115;-83
2022/08/20 07:46:14;;;;;;;3.15;1.13;;;17.10;99.90;;;;;;4915372;29;20040;-84
2022/08/20 07:48:45;;;;;;;1.85;0.98;;;17.10;99.90;;;;;;4923572;29;20526;-83
2022/08/20 07:51:15;;;;;;;3.00;0.95;;;17.10;99.90;;;;;;4927846;29;20072;-83
2022/08/20 07:53:41;;;;;;;1.65;0.70;;;17.20;99.90;;;;;;4900821;29;20143;-80
2022/08/20 07:56:10;;;;;;;1.55;0.85;;;17.30;99.90;;;;;;4905502;29;20120;-75
2022/08/20 07:58:40;;;;;;;1.65;0.82;;;17.40;99.90;;;;;;4914342;29;20083;-78
2022/08/20 08:01:07;;;;;;;1.60;0.88;;;17.60;99.90;;;;;;4908290;29;20099;-77
2022/08/20 08:03:33;;;;;;;1.73;0.88;;;17.70;99.90;;;;;;4939100;29;20051;-77
2022/08/20 08:05:59;;;;;;;2.65;1.20;;;17.80;99.90;;;;;;4912545;29;20419;-77
2022/08/20 08:08:27;;;;;;;2.92;0.88;;;17.90;99.90;;;;;;4906230;29;20682;-77
2022/08/20 08:10:58;;;;;;;1.75;0.80;;;17.90;99.90;;;;;;4906613;29;20071;-77
2022/08/20 08:13:26;;;;;;;2.22;0.90;;;17.90;99.90;;;;;;4930171;29;20408;-77
2022/08/20 08:15:56;;;;;;;1.48;0.68;;;17.90;99.90;;;;;;4912980;29;20031;-78
2022/08/20 08:18:30;;;;;;;2.50;1.00;;;17.90;99.90;;;;;;4902256;29;20123;-77
2022/08/20 08:20:56;;;;;;;2.28;0.98;;;18.00;99.90;;;;;;4921780;29;20576;-78
2022/08/20 08:23:23;;;;;;;2.55;0.98;;;18.10;99.90;;;;;;4924881;29;20428;-77
2022/08/20 08:25:50;;;;;;;1.45;0.80;;;18.20;99.90;;;;;;4919832;29;20123;-77
2022/08/20 08:28:17;;;;;;;1.25;0.90;;;18.30;99.90;;;;;;4905743;29;20040;-77
2022/08/20 08:30:44;;;;;;;2.45;0.85;;;18.50;99.90;;;;;;4910577;29;20043;-77
2022/08/20 08:33:27;;;;;;;2.65;0.60;;;19.10;99.90;;;;;;4927685;29;20416;-77
2022/08/20 08:35:54;;;;;;;3.35;0.70;;;19.70;99.90;;;;;;4921374;29;20040;-77
2022/08/20 08:38:21;;;;;;;1.52;0.60;;;20.40;99.90;;;;;;4914337;29;20040;-77
2022/08/20 08:40:50;;;;;;;1.48;0.50;;;21.10;99.90;;;;;;4915274;29;20071;-77
2022/08/20 08:43:18;;;;;;;1.88;0.80;;;21.80;99.90;;;;;;4903583;29;20044;-77
2022/08/20 08:45:47;;;;;;;1.65;1.00;;;22.50;99.90;;;;;;4914266;29;20044;-77
2022/08/20 08:48:16;;;;;;;0.82;0.60;;;23.20;99.90;;;;;;4913370;29;20508;-79
2022/08/20 08:50:45;;;;;;;1.35;0.47;;;23.60;99.90;;;;;;4913266;29;20054;-77
2022/08/20 08:53:18;;;;;;;2.30;0.95;;;24.00;99.90;;;;;;4916535;29;20036;-78
2022/08/20 08:55:44;;;;;;;1.10;0.50;;;24.20;99.90;;;;;;4925214;29;20040;-78
2022/08/20 08:58:10;;;;;;;1.45;0.52;;;24.20;99.90;;;;;;4933315;29;20039;-78
2022/08/20 09:00:35;;;;;;;1.13;0.50;;;24.40;99.90;;;;;;4933207;29;20044;-76
2022/08/20 09:03:11;;;;;;;1.65;0.50;;;24.70;99.90;;;;;;4933085;29;20043;-76
2022/08/20 09:05:52;;;;;;;2.20;0.73;;;25.10;99.90;;;;;;4932994;29;20039;-76
2022/08/20 09:08:26;;;;;;;1.23;0.43;;;25.40;99.90;;;;;;4924495;29;20070;-76
2022/08/20 09:10:52;;;;;;;2.13;1.30;;;25.60;99.90;;;;;;4911536;29;20048;-77
2022/08/20 09:13:18;;;;;;;1.25;0.50;;;25.80;99.90;;;;;;4914041;29;20071;-76
2022/08/20 09:15:43;;;;;;;1.50;0.50;;;26.00;99.90;;;;;;4923345;29;20052;-76
2022/08/20 09:18:09;;;;;;;2.40;0.82;;;26.30;99.90;;;;;;4917122;29;20028;-77
2022/08/20 09:20:35;;;;;;;2.17;0.80;;;26.50;99.90;;;;;;4907831;29;20135;-77
2022/08/20 09:23:03;;;;;;;1.60;0.88;;;26.50;99.90;;;;;;4914191;29;20055;-77
2022/08/20 09:25:29;;;;;;;1.33;0.45;;;26.50;99.90;;;;;;4923984;29;20044;-77
2022/08/20 09:27:54;;;;;;;1.80;0.90;;;26.60;99.90;;;;;;4925711;29;20039;-77
2022/08/20 09:30:20;;;;;;;1.55;0.40;;;26.70;99.90;;;;;;4916198;29;20099;-77
2022/08/20 09:32:46;;;;;;;0.50;0.50;;;26.90;99.90;;;;;;4925150;29;20052;-76
2022/08/20 09:35:12;;;;;;;1.52;0.50;;;27.10;99.90;;;;;;4923422;29;20043;-76
2022/08/20 09:37:38;;;;;;;2.20;0.40;;;27.30;99.90;;;;;;4917381;29;20055;-76
2022/08/20 09:40:07;;;;;;;2.13;0.70;;;27.40;99.90;;;;;;4901048;29;20036;-76
2022/08/20 09:42:35;;;;;;;1.50;0.30;;;27.50;99.90;;;;;;4916827;29;20047;-76
2022/08/20 09:45:01;;;;;;;1.20;0.30;;;27.70;99.40;;;;;;4924870;29;20047;-76
2022/08/20 09:47:27;;;;;;;0.60;0.35;;;27.80;99.90;;;;;;4929442;29;20048;-78
2022/08/20 09:49:53;;;;;;;1.40;0.60;;;27.80;94.90;;;;;;4914340;29;20042;-78
2022/08/20 09:52:28;;;;;;;1.52;0.50;;;27.80;93.40;;;;;;4916738;29;20447;-79
2022/08/20 09:55:02;;;;;;;1.95;0.50;;;27.80;90.60;;;;;;4892052;29;20033;-77
2022/08/20 09:57:30;;;;;;;2.50;0.40;;;27.70;92.00;;;;;;4902783;29;20163;-76
2022/08/20 10:00:03;;;;;;;1.13;0.50;;;27.70;94.70;;;;;;4920016;29;20032;-76
2022/08/20 10:02:28;;;;;;;1.42;0.47;;;27.80;91.70;;;;;;4923070;29;20040;-78
2022/08/20 10:07:33;;;;;;;0.88;0.60;;;27.80;90.70;;;;;;5039590;23;20056;-81
2022/08/20 10:10:24;;;;;;;1.35;0.40;;;27.70;90.00;;;;;;4940584;29;20526;-81
2022/08/20 10:13:38;;;;;;;1.50;0.55;;;27.70;91.60;;;;;;4914060;29;20040;-81
2022/08/20 10:16:56;;;;;;;1.55;0.40;;;27.80;90.20;;;;;;4923331;29;20112;-82
2022/08/20 10:19:47;;;;;;;3.33;0.90;;;27.90;86.60;;;;;;4922972;29;20052;-80
2022/08/20 10:22:31;;;;;;;1.40;0.40;;;27.90;90.90;;;;;;4915868;29;20039;-80
2022/08/20 10:25:00;;;;;;;3.53;0.63;;;28.00;86.60;;;;;;4924810;29;20066;-78
2022/08/20 10:27:36;;;;;;;1.15;0.40;;;28.10;83.60;;;;;;4927771;29;20052;-80
2022/08/20 10:30:11;;;;;;;2.30;0.45;;;28.10;84.70;;;;;;4921619;29;20047;-80
2022/08/20 10:32:41;;;;;;;0.73;0.40;;;28.10;81.10;;;;;;4923316;29;20103;-81
2022/08/20 10:35:14;;;;;;;0.88;0.40;;;28.20;82.40;;;;;;4918349;29;20044;-80
2022/08/20 10:37:44;;;;;;;13.70;3.88;;;28.20;79.10;;;;;;4903674;29;20044;-78
2022/08/20 10:40:20;;;;;;;1.35;0.50;;;28.20;80.60;;;;;;4910591;29;20594;-79
2022/08/20 10:43:01;;;;;;;1.20;0.40;;;28.10;78.80;;;;;;4918548;29;20563;-79
2022/08/20 10:45:48;;;;;;;1.20;0.47;;;28.00;78.60;;;;;;4920710;29;20054;-79
2022/08/20 10:48:15;;;;;;;0.75;0.40;;;28.00;76.90;;;;;;4903459;29;20122;-78
2022/08/20 10:50:41;;;;;;;2.65;0.40;;;28.00;77.20;;;;;;4909649;29;20043;-78
2022/08/20 10:53:07;;;;;;;1.25;0.30;;;28.10;76.30;;;;;;4909203;29;20099;-78
2022/08/20 10:55:33;;;;;;;1.45;0.40;;;28.20;77.50;;;;;;4917736;29;20040;-78
2022/08/20 10:57:59;;;;;;;1.65;0.40;;;28.30;77.80;;;;;;4902499;29;20123;-78
2022/08/20 11:00:25;;;;;;;1.17;0.30;;;28.40;75.10;;;;;;4904021;29;20055;-78
2022/08/20 11:02:51;;;;;;;2.47;0.30;;;28.40;74.80;;;;;;4914982;29;20048;-78
2022/08/20 11:05:17;;;;;;;1.45;0.40;;;28.40;74.90;;;;;;4915140;29;20040;-77
2022/08/20 11:07:44;;;;;;;1.02;0.30;;;28.10;71.80;;;;;;4926491;29;20040;-78
2022/08/20 11:10:10;;;;;;;1.10;0.50;;;27.90;72.50;;;;;;4929680;29;20050;-78
2022/08/20 11:12:36;;;;;;;1.33;0.47;;;28.00;73.10;;;;;;4920721;29;20032;-78
2022/08/20 11:15:03;;;;;;;1.40;0.50;;;27.80;72.10;;;;;;4921913;29;20032;-77
2022/08/20 11:17:32;;;;;;;1.38;0.63;;;27.70;72.10;;;;;;4933826;29;20123;-77
2022/08/20 11:19:58;;;;;;;1.55;0.50;;;27.80;59.90;;;;;;4931096;29;20460;-78
2022/08/20 11:22:25;;;;;;;1.48;0.50;;;27.80;68.60;;;;;;4922337;29;20050;-78
2022/08/20 11:24:52;;;;;;;1.95;0.70;;;28.00;70.70;;;;;;4902782;29;20044;-77
2022/08/20 11:27:37;;;;;;;2.20;0.57;;;28.30;72.30;;;;;;4917192;29;20036;-78
2022/08/20 11:30:08;;;;;;;1.27;0.50;;;28.30;68.00;;;;;;4910641;29;20563;-78
2022/08/20 11:32:34;;;;;;;2.28;0.40;;;28.00;69.20;;;;;;4921582;29;20044;-78
2022/08/20 11:35:00;;;;;;;1.35;0.60;;;27.80;70.00;;;;;;4904790;29;20091;-78
2022/08/20 11:37:26;;;;;;;1.65;0.50;;;27.60;70.80;;;;;;4928367;29;20055;-78
2022/08/20 11:39:52;;;;;;;1.38;0.60;;;27.50;69.50;;;;;;4909500;29;20036;-78
2022/08/20 11:42:18;;;;;;;2.33;0.70;;;27.80;71.30;;;;;;4922734;29;20036;-78
2022/08/20 11:44:44;;;;;;;1.80;0.60;;;28.10;70.50;;;;;;4908307;29;20047;-79
2022/08/20 11:47:39;;;;;;;1.75;0.68;;;28.40;71.70;;;;;;4932609;29;20047;-81
2022/08/20 11:50:12;;;;;;;2.25;0.80;;;28.60;71.10;;;;;;4898821;29;20055;-78
2022/08/20 11:53:01;;;;;;;1.13;0.60;;;28.80;70.30;;;;;;4907785;29;20043;-84
2022/08/20 11:55:58;;;;;;;2.13;0.88;;;28.90;67.60;;;;;;4911983;29;20059;-79
2022/08/20 11:59:06;;;;;;;1.83;0.68;;;28.80;68.00;;;;;;4916289;29;20047;-80
2022/08/20 12:01:44;;;;;;;1.83;0.50;;;28.50;68.80;;;;;;4913779;29;20052;-79
2022/08/20 12:04:23;;;;;;;1.90;0.60;;;28.20;70.00;;;;;;4911117;29;20042;-79
2022/08/20 12:07:09;;;;;;;0.90;0.47;;;27.80;69.20;;;;;;4932505;29;20059;-79
2022/08/20 12:10:09;;;;;;;2.63;0.90;;;27.20;69.80;;;;;;4915972;29;20040;-79
2022/08/20 12:17:32;;;;;;;1.27;0.50;;;26.10;70.30;;;;;;4917983;29;20172;-79
2022/08/20 15:03:07;;;;;;;1.98;1.00;;;24.40;70.10;;;;;;6218483;23;20248;-79
2022/08/20 15:28:52;;;;;;;1.80;0.80;;;23.80;72.90;;;;;;5847106;24;20098;-79
2022/08/20 15:59:34;;;;;;;;;;;;;;;;;;;;;
2022/08/20 16:06:25;;;;;;;2.30;1.02;;;22.20;76.40;;;;;;6169742;23;20151;-80
2022/08/20 16:09:38;;;;;;;3.22;1.15;;;22.10;75.90;;;;;;6136516;23;20019;-80
2022/08/20 16:12:09;;;;;;;1.48;1.02;;;22.00;76.20;;;;;;6178020;23;20036;-77
2022/08/20 16:14:41;;;;;;;2.75;1.02;;;22.00;76.50;;;;;;6187207;23;20012;-75
2022/08/20 16:17:13;;;;;;;2.40;1.20;;;21.90;77.50;;;;;;6186134;23;20020;-77
2022/08/20 16:20:07;;;;;;;2.28;0.90;;;21.80;77.10;;;;;;6186446;23;20005;-77
2022/08/20 16:22:36;;;;;;;2.55;1.17;;;21.80;77.30;;;;;;6185784;23;20020;-76
2022/08/20 16:25:02;;;;;;;1.75;0.95;;;21.80;77.50;;;;;;6187294;23;20016;-76
2022/08/20 16:27:30;;;;;;;1.40;0.85;;;21.80;78.20;;;;;;6162448;23;20457;-76
2022/08/20 16:30:10;;;;;;;2.75;1.00;;;21.80;79.20;;;;;;6161957;23;20020;-76
2022/08/20 16:32:42;;;;;;;2.50;1.40;;;21.70;79.10;;;;;;6188593;23;20464;-78
2022/08/20 16:35:26;;;;;;;2.42;1.00;;;21.70;79.10;;;;;;6190109;23;20008;-77
2022/08/20 16:38:01;;;;;;;4.50;1.02;;;21.60;80.10;;;;;;6189025;23;20511;-78
2022/08/20 16:40:26;;;;;;;2.35;1.00;;;21.60;80.10;;;;;;6187735;23;20020;-78
2022/08/20 16:42:56;;;;;;;3.17;1.27;;;21.50;79.70;;;;;;6186480;23;20012;-77
2022/08/20 16:45:40;;;;;;;2.53;1.30;;;21.50;80.20;;;;;;6188239;23;20012;-78
2022/08/20 16:48:08;;;;;;;1.63;1.05;;;21.50;80.80;;;;;;6189309;23;20016;-77
2022/08/20 16:51:09;;;;;;;3.28;0.90;;;21.40;80.60;;;;;;6189584;23;20483;-77
2022/08/20 16:53:35;;;;;;;2.25;1.08;;;21.40;80.60;;;;;;6182077;23;20020;-77